Time,TemperatureF,DewpointF,PressureIn,WindDirection,WindDirectionDegrees,WindSpeedMPH,WindSpeedGustMPH,Humidity,HourlyPrecipIn,Conditions,Clouds,dailyrainin,SoftwareType,DateUTC
2013-01-21 00:01:00,25.9,20.3,29.64,SE,135,0.0,0.0,79,0.00,,,0.00,meteohub,2013-01-21 05:01:00,
2013-01-21 00:02:00,25.7,20.1,29.63,SE,135,0.0,0.0,79,0.00,,,0.00,meteohub,2013-01-21 05:02:00,
2013-01-21 00:03:00,25.7,20.1,29.63,SE,135,0.0,0.0,79,0.00,,,0.00,meteohub,2013-01-21 05:03:00,
2013-01-21 00:06:00,25.7,20.1,29.63,SE,135,0.0,0.0,79,0.00,,,0.00,meteohub,2013-01-21 05:06:00,
2013-01-21 00:17:00,25.2,19.6,29.63,SE,135,0.0,0.0,79,0.00,,,0.00,meteohub,2013-01-21 05:17:00,
2013-01-21 00:22:00,25.2,19.6,29.63,SE,135,0.0,0.0,79,0.00,,,0.00,meteohub,2013-01-21 05:22:00,
2013-01-21 00:28:00,25.0,19.8,29.63,SE,135,0.0,0.0,80,0.00,,,0.00,meteohub,2013-01-21 05:28:00,
2013-01-21 00:34:00,25.0,19.8,29.63,SE,135,0.0,0.0,80,0.00,,,0.00,meteohub,2013-01-21 05:34:00,
2013-01-21 00:41:00,24.8,19.6,29.63,SE,135,0.0,0.0,80,0.00,,,0.00,meteohub,2013-01-21 05:41:00,
2013-01-21 00:47:00,24.6,19.6,29.62,SE,135,0.0,0.0,81,0.00,,,0.00,meteohub,2013-01-21 05:47:00,
2013-01-21 00:52:00,24.4,19.2,29.62,SE,135,0.0,0.0,80,0.00,,,0.00,meteohub,2013-01-21 05:52:00,
2013-01-21 00:58:00,24.6,19.6,29.62,NW,315,0.0,0.0,81,0.00,,,0.00,meteohub,2013-01-21 05:58:00,
2013-01-21 01:04:00,24.6,19.6,29.62,East,90,0.0,0.0,81,0.00,,,0.00,meteohub,2013-01-21 06:04:00,
2013-01-21 01:10:00,24.4,19.4,29.62,South,180,1.0,0.0,81,0.00,,,0.00,meteohub,2013-01-21 06:10:00,
2013-01-21 01:17:00,24.3,19.0,29.62,SW,225,0.0,1.0,80,0.00,,,0.00,meteohub,2013-01-21 06:17:00,
2013-01-21 01:23:00,24.3,19.0,29.62,SW,225,0.0,1.0,80,0.00,,,0.00,meteohub,2013-01-21 06:23:00,
2013-01-21 01:29:00,24.4,19.4,29.62,SE,135,0.0,1.0,81,0.00,,,0.00,meteohub,2013-01-21 06:29:00,
2013-01-21 01:36:00,24.3,19.0,29.62,SE,135,0.0,0.0,80,0.00,,,0.00,meteohub,2013-01-21 06:36:00,
2013-01-21 01:42:00,24.3,19.2,29.63,East,90,0.0,0.0,81,0.00,,,0.00,meteohub,2013-01-21 06:42:00,
2013-01-21 01:47:00,24.3,19.2,29.62,East,90,0.0,0.0,81,0.00,,,0.00,meteohub,2013-01-21 06:47:00,
2013-01-21 01:53:00,23.9,18.7,29.62,South,180,0.0,0.0,80,0.00,,,0.00,meteohub,2013-01-21 06:53:00,
2013-01-21 01:59:00,23.5,18.3,29.63,South,180,0.0,0.0,80,0.00,,,0.00,meteohub,2013-01-21 06:59:00,
2013-01-21 02:05:00,23.7,18.5,29.62,East,90,0.0,0.0,80,0.00,,,0.00,meteohub,2013-01-21 07:05:00,
2013-01-21 02:11:00,23.5,18.3,29.62,SE,135,0.0,0.0,80,0.00,,,0.00,meteohub,2013-01-21 07:11:00,
2013-01-21 02:17:00,23.4,18.1,29.63,North,0,0.0,0.0,80,0.00,,,0.00,meteohub,2013-01-21 07:17:00,
2013-01-21 02:22:00,23.7,18.5,29.62,North,0,0.0,0.0,80,0.00,,,0.00,meteohub,2013-01-21 07:22:00,
2013-01-21 02:28:00,23.7,18.5,29.62,North,0,0.0,0.0,80,0.00,,,0.00,meteohub,2013-01-21 07:28:00,
2013-01-21 02:35:00,23.5,18.3,29.63,South,180,0.0,0.0,80,0.00,,,0.00,meteohub,2013-01-21 07:35:00,
2013-01-21 02:41:00,23.5,18.3,29.62,South,180,0.0,0.0,80,0.00,,,0.00,meteohub,2013-01-21 07:41:00,
2013-01-21 02:47:00,23.2,18.0,29.63,South,180,0.0,0.0,80,0.00,,,0.00,meteohub,2013-01-21 07:47:00,
2013-01-21 02:52:00,23.4,18.1,29.63,NE,45,0.0,0.0,80,0.00,,,0.00,meteohub,2013-01-21 07:52:00,
2013-01-21 02:58:00,23.2,18.0,29.63,NE,45,0.0,0.0,80,0.00,,,0.00,meteohub,2013-01-21 07:58:00,
2013-01-21 03:05:00,23.2,18.0,29.62,NE,45,0.0,0.0,80,0.00,,,0.00,meteohub,2013-01-21 08:05:00,
2013-01-21 03:11:00,23.0,17.8,29.62,North,0,0.0,0.0,80,0.00,,,0.00,meteohub,2013-01-21 08:11:00,
2013-01-21 03:17:00,22.8,18.0,29.62,North,0,0.0,0.0,81,0.00,,,0.00,meteohub,2013-01-21 08:17:00,
2013-01-21 03:22:00,22.6,17.8,29.62,North,0,0.0,0.0,81,0.00,,,0.00,meteohub,2013-01-21 08:22:00,
2013-01-21 03:28:00,22.6,17.8,29.62,NE,45,0.0,0.0,81,0.00,,,0.00,meteohub,2013-01-21 08:28:00,
2013-01-21 03:34:00,22.5,17.6,29.63,NE,45,0.0,0.0,81,0.00,,,0.00,meteohub,2013-01-21 08:34:00,
2013-01-21 03:40:00,22.6,17.8,29.62,NE,45,0.0,0.0,81,0.00,,,0.00,meteohub,2013-01-21 08:40:00,
2013-01-21 03:46:00,22.5,17.6,29.62,NE,45,0.0,0.0,81,0.00,,,0.00,meteohub,2013-01-21 08:46:00,
2013-01-21 03:53:00,22.3,17.4,29.62,NE,45,0.0,0.0,81,0.00,,,0.00,meteohub,2013-01-21 08:53:00,
2013-01-21 03:59:00,22.3,17.4,29.62,NE,45,0.0,0.0,81,0.00,,,0.00,meteohub,2013-01-21 08:59:00,
2013-01-21 04:05:00,22.1,17.2,29.62,NE,45,0.0,0.0,81,0.00,,,0.00,meteohub,2013-01-21 09:05:00,
2013-01-21 04:11:00,22.3,17.4,29.60,SE,135,0.0,0.0,81,0.00,,,0.00,meteohub,2013-01-21 09:11:00,
2013-01-21 04:17:00,22.3,17.4,29.60,North,0,0.0,0.0,81,0.00,,,0.00,meteohub,2013-01-21 09:17:00,
2013-01-21 04:22:00,22.3,17.4,29.61,North,0,0.0,0.0,81,0.00,,,0.00,meteohub,2013-01-21 09:22:00,
2013-01-21 04:28:00,22.3,17.4,29.61,North,0,0.0,1.0,81,0.00,,,0.00,meteohub,2013-01-21 09:28:00,
2013-01-21 04:35:00,21.9,17.1,29.60,South,180,0.0,1.0,81,0.00,,,0.00,meteohub,2013-01-21 09:35:00,
2013-01-21 04:40:00,21.7,16.9,29.60,SE,135,0.0,1.0,81,0.00,,,0.00,meteohub,2013-01-21 09:40:00,
2013-01-21 04:46:00,21.6,16.7,29.60,NE,45,0.0,1.0,81,0.00,,,0.00,meteohub,2013-01-21 09:46:00,
2013-01-21 04:52:00,21.6,16.7,29.60,SE,135,1.0,0.0,81,0.00,,,0.00,meteohub,2013-01-21 09:52:00,
2013-01-21 04:58:00,21.6,16.7,29.60,SE,135,0.0,1.0,81,0.00,,,0.00,meteohub,2013-01-21 09:58:00,
2013-01-21 05:04:00,21.6,16.7,29.60,SE,135,0.0,1.0,81,0.00,,,0.00,meteohub,2013-01-21 10:04:00,
2013-01-21 05:11:00,21.4,16.5,29.60,SE,135,0.0,1.0,81,0.00,,,0.00,meteohub,2013-01-21 10:11:00,
2013-01-21 05:17:00,21.2,16.3,29.60,SW,225,0.0,1.0,81,0.00,,,0.00,meteohub,2013-01-21 10:17:00,
2013-01-21 05:23:00,21.2,16.3,29.60,NE,45,0.0,0.0,81,0.00,,,0.00,meteohub,2013-01-21 10:23:00,
2013-01-21 05:29:00,21.0,16.3,29.60,SE,135,0.0,0.0,82,0.00,,,0.00,meteohub,2013-01-21 10:29:00,
2013-01-21 05:35:00,20.8,16.2,29.60,SE,135,0.0,0.0,82,0.00,,,0.00,meteohub,2013-01-21 10:35:00,
2013-01-21 05:42:00,21.0,16.3,29.60,SE,135,0.0,0.0,82,0.00,,,0.00,meteohub,2013-01-21 10:42:00,
2013-01-21 05:47:00,20.8,16.2,29.60,SE,135,0.0,0.0,82,0.00,,,0.00,meteohub,2013-01-21 10:47:00,
2013-01-21 05:52:00,20.8,16.2,29.60,SE,135,0.0,0.0,82,0.00,,,0.00,meteohub,2013-01-21 10:52:00,
2013-01-21 05:59:00,20.8,16.2,29.60,NE,45,0.0,0.0,82,0.00,,,0.00,meteohub,2013-01-21 10:59:00,
2013-01-21 06:05:00,20.8,16.2,29.60,South,180,0.0,0.0,82,0.00,,,0.00,meteohub,2013-01-21 11:05:00,
2013-01-21 06:11:00,20.7,16.0,29.59,East,90,0.0,0.0,82,0.00,,,0.00,meteohub,2013-01-21 11:11:00,
2013-01-21 06:17:00,20.7,16.0,29.59,NE,45,0.0,0.0,82,0.00,,,0.00,meteohub,2013-01-21 11:17:00,
2013-01-21 06:22:00,20.5,15.8,29.60,SE,135,0.0,0.0,82,0.00,,,0.00,meteohub,2013-01-21 11:22:00,
2013-01-21 06:29:00,20.5,15.8,29.60,NE,45,0.0,0.0,82,0.00,,,0.00,meteohub,2013-01-21 11:29:00,
2013-01-21 06:35:00,20.8,16.2,29.60,South,180,0.0,0.0,82,0.00,,,0.00,meteohub,2013-01-21 11:35:00,
2013-01-21 06:41:00,20.5,15.8,29.60,South,180,0.0,0.0,82,0.00,,,0.00,meteohub,2013-01-21 11:41:00,
2013-01-21 06:47:00,20.3,15.4,29.60,SE,135,0.0,0.0,81,0.00,,,0.00,meteohub,2013-01-21 11:47:00,
2013-01-21 06:52:00,20.1,15.3,29.60,SE,135,0.0,0.0,81,0.00,,,0.00,meteohub,2013-01-21 11:52:00,
2013-01-21 06:58:00,20.1,15.3,29.60,SE,135,0.0,0.0,81,0.00,,,0.00,meteohub,2013-01-21 11:58:00,
2013-01-21 07:04:00,19.9,15.1,29.60,SE,135,0.0,0.0,81,0.00,,,0.00,meteohub,2013-01-21 12:04:00,
2013-01-21 07:10:00,19.8,14.9,29.60,South,180,0.0,0.0,81,0.00,,,0.00,meteohub,2013-01-21 12:10:00,
2013-01-21 07:17:00,19.9,15.1,29.60,East,90,0.0,0.0,81,0.00,,,0.00,meteohub,2013-01-21 12:17:00,
2013-01-21 07:23:00,20.1,15.3,29.60,NW,315,0.0,0.0,81,0.00,,,0.00,meteohub,2013-01-21 12:23:00,
2013-01-21 07:29:00,19.9,15.1,29.60,South,180,0.0,0.0,81,0.00,,,0.00,meteohub,2013-01-21 12:29:00,
2013-01-21 07:35:00,19.6,14.7,29.60,South,180,0.0,0.0,81,0.00,,,0.00,meteohub,2013-01-21 12:35:00,
2013-01-21 07:41:00,19.8,14.9,29.60,East,90,0.0,0.0,81,0.00,,,0.00,meteohub,2013-01-21 12:41:00,
2013-01-21 07:47:00,19.8,14.9,29.60,South,180,0.0,0.0,81,0.00,,,0.00,meteohub,2013-01-21 12:47:00,
2013-01-21 07:52:00,19.8,14.9,29.61,South,180,0.0,0.0,81,0.00,,,0.00,meteohub,2013-01-21 12:52:00,
2013-01-21 07:58:00,19.6,14.7,29.61,East,90,0.0,0.0,81,0.00,,,0.00,meteohub,2013-01-21 12:58:00,
2013-01-21 08:04:00,19.8,14.9,29.61,East,90,0.0,0.0,81,0.00,,,0.00,meteohub,2013-01-21 13:04:00,
2013-01-21 08:11:00,19.8,14.9,29.60,South,180,0.0,0.0,81,0.00,,,0.00,meteohub,2013-01-21 13:11:00,
2013-01-21 08:17:00,19.6,14.7,29.61,South,180,0.0,0.0,81,0.00,,,0.00,meteohub,2013-01-21 13:17:00,
2013-01-21 08:23:00,19.9,15.1,29.61,South,180,0.0,0.0,81,0.00,,,0.00,meteohub,2013-01-21 13:23:00,
2013-01-21 08:29:00,20.3,15.4,29.61,East,90,0.0,0.0,81,0.00,,,0.00,meteohub,2013-01-21 13:29:00,
2013-01-21 08:35:00,20.7,16.0,29.61,South,180,0.0,0.0,82,0.00,,,0.00,meteohub,2013-01-21 13:35:00,
2013-01-21 08:41:00,20.7,16.0,29.61,SE,135,0.0,0.0,82,0.00,,,0.00,meteohub,2013-01-21 13:41:00,
2013-01-21 08:47:00,21.0,16.3,29.61,SE,135,0.0,0.0,82,0.00,,,0.00,meteohub,2013-01-21 13:47:00,
2013-01-21 08:52:00,21.2,16.3,29.61,SE,135,0.0,0.0,81,0.00,,,0.00,meteohub,2013-01-21 13:52:00,
2013-01-21 08:57:00,21.6,16.7,29.61,SE,135,0.0,0.0,81,0.00,,,0.00,meteohub,2013-01-21 13:57:00,
2013-01-21 09:04:00,22.1,17.2,29.61,North,0,0.0,0.0,81,0.00,,,0.00,meteohub,2013-01-21 14:04:00,
2013-01-21 09:10:00,22.6,17.8,29.61,East,90,0.0,0.0,81,0.00,,,0.00,meteohub,2013-01-21 14:10:00,
2013-01-21 09:16:00,23.2,18.1,29.61,East,90,0.0,0.0,81,0.00,,,0.00,meteohub,2013-01-21 14:16:00,
2013-01-21 09:22:00,23.7,18.7,29.62,East,90,0.0,0.0,81,0.00,,,0.00,meteohub,2013-01-21 14:22:00,
2013-01-21 09:28:00,24.3,19.2,29.62,SE,135,0.0,0.0,81,0.00,,,0.00,meteohub,2013-01-21 14:28:00,
2013-01-21 09:34:00,25.0,19.8,29.62,East,90,0.0,0.0,80,0.00,,,0.00,meteohub,2013-01-21 14:34:00,
2013-01-21 09:40:00,25.7,20.7,29.62,East,90,0.0,0.0,81,0.00,,,0.00,meteohub,2013-01-21 14:40:00,
2013-01-21 09:47:00,26.8,21.4,29.62,East,90,0.0,0.0,80,0.00,,,0.00,meteohub,2013-01-21 14:47:00,
2013-01-21 09:53:00,27.1,22.1,29.61,East,90,0.0,0.0,81,0.00,,,0.00,meteohub,2013-01-21 14:53:00,
2013-01-21 09:59:00,28.0,23.0,29.61,East,90,0.0,0.0,81,0.00,,,0.00,meteohub,2013-01-21 14:59:00,
2013-01-21 10:05:00,29.8,26.2,29.61,NE,45,0.0,0.0,86,0.00,,,0.00,meteohub,2013-01-21 15:05:00,
2013-01-21 10:11:00,31.1,27.1,29.61,ENE,68,2.0,0.0,85,0.00,,,0.00,meteohub,2013-01-21 15:11:00,
2013-01-21 10:17:00,32.5,28.6,29.61,East,90,2.0,2.0,85,0.00,,,0.00,meteohub,2013-01-21 15:17:00,
2013-01-21 10:23:00,33.3,29.3,29.61,NE,45,3.0,3.0,85,0.00,,,0.00,meteohub,2013-01-21 15:23:00,
2013-01-21 10:29:00,34.3,29.1,29.61,East,90,3.0,3.0,81,0.00,,,0.00,meteohub,2013-01-21 15:29:00,
2013-01-21 10:35:00,36.1,27.7,29.61,South,180,4.0,8.0,71,0.00,,,0.00,meteohub,2013-01-21 15:35:00,
2013-01-21 10:42:00,38.3,27.1,29.61,South,180,6.0,8.0,64,0.00,,,0.00,meteohub,2013-01-21 15:42:00,
2013-01-21 10:47:00,41.4,24.1,29.62,East,90,2.0,10.0,50,0.00,,,0.00,meteohub,2013-01-21 15:47:00,
2013-01-21 10:52:00,44.2,22.6,29.61,West,270,4.0,11.0,42,0.00,,,0.00,meteohub,2013-01-21 15:52:00,
2013-01-21 10:59:00,47.7,23.4,29.61,SW,225,7.0,11.0,38,0.00,,,0.00,meteohub,2013-01-21 15:59:00,
2013-01-21 11:05:00,48.0,21.7,29.61,NW,315,2.0,11.0,35,0.00,,,0.00,meteohub,2013-01-21 16:05:00,
2013-01-21 11:11:00,49.6,22.5,29.60,South,180,4.0,8.0,34,0.00,,,0.00,meteohub,2013-01-21 16:11:00,
2013-01-21 11:17:00,46.8,19.2,29.60,South,180,8.0,11.0,33,0.00,,,0.00,meteohub,2013-01-21 16:17:00,
2013-01-21 11:22:00,47.1,20.1,29.61,SE,135,2.0,11.0,34,0.00,,,0.00,meteohub,2013-01-21 16:22:00,
2013-01-21 11:28:00,47.7,20.7,29.60,SW,225,7.0,14.0,34,0.00,,,0.00,meteohub,2013-01-21 16:28:00,
2013-01-21 11:35:00,46.9,19.9,29.60,South,180,6.0,14.0,34,0.00,,,0.00,meteohub,2013-01-21 16:35:00,
2013-01-21 11:41:00,47.5,20.5,29.60,NE,45,9.0,15.0,34,0.00,,,0.00,meteohub,2013-01-21 16:41:00,
2013-01-21 11:47:00,47.1,20.1,29.60,East,90,4.0,15.0,34,0.00,,,0.00,meteohub,2013-01-21 16:47:00,
2013-01-21 11:53:00,46.0,21.9,29.59,North,0,8.0,15.0,38,0.00,,,0.00,meteohub,2013-01-21 16:53:00,
2013-01-21 11:59:00,47.8,22.1,29.59,SW,225,4.0,15.0,36,0.00,,,0.00,meteohub,2013-01-21 16:59:00,
2013-01-21 12:05:00,47.5,21.2,29.58,NW,315,14.0,17.0,35,0.00,,,0.00,meteohub,2013-01-21 17:05:00,
2013-01-21 12:12:00,46.9,20.7,29.57,West,270,11.0,14.0,35,0.00,,,0.00,meteohub,2013-01-21 17:12:00,
2013-01-21 12:18:00,48.0,22.3,29.57,NE,45,4.0,14.0,36,0.00,,,0.00,meteohub,2013-01-21 17:18:00,
2013-01-21 12:24:00,47.3,21.0,29.57,WNW,293,4.0,15.0,35,0.00,,,0.00,meteohub,2013-01-21 17:24:00,
2013-01-21 12:30:00,48.9,21.7,29.57,SE,135,5.0,15.0,34,0.00,,,0.00,meteohub,2013-01-21 17:30:00,
2013-01-21 12:37:00,49.8,21.9,29.57,NE,45,2.0,15.0,33,0.00,,,0.00,meteohub,2013-01-21 17:37:00,
2013-01-21 12:43:00,50.5,21.0,29.56,North,0,6.0,15.0,31,0.00,,,0.00,meteohub,2013-01-21 17:43:00,
2013-01-21 12:49:00,48.6,21.4,29.55,SW,225,4.0,11.0,34,0.00,,,0.00,meteohub,2013-01-21 17:49:00,
2013-01-21 12:55:00,46.4,22.1,29.55,NW,315,8.0,15.0,38,0.00,,,0.00,meteohub,2013-01-21 17:55:00,
2013-01-21 13:02:00,45.7,22.8,29.55,South,180,13.0,15.0,40,0.00,,,0.00,meteohub,2013-01-21 18:02:00,
2013-01-21 13:08:00,45.0,22.1,29.55,SW,225,11.0,15.0,40,0.00,,,0.00,meteohub,2013-01-21 18:08:00,
2013-01-21 13:14:00,45.1,22.3,29.55,SW,225,11.0,19.0,40,0.00,,,0.00,meteohub,2013-01-21 18:14:00,
2013-01-21 13:20:00,45.3,22.5,29.55,South,180,11.0,19.0,40,0.00,,,0.00,meteohub,2013-01-21 18:20:00,
2013-01-21 13:27:00,46.0,23.0,29.54,SE,135,4.0,19.0,40,0.00,,,0.00,meteohub,2013-01-21 18:27:00,
2013-01-21 13:33:00,46.8,22.5,29.55,South,180,15.0,19.0,38,0.00,,,0.00,meteohub,2013-01-21 18:33:00,
2013-01-21 13:39:00,48.7,23.0,29.54,North,0,8.0,20.0,36,0.00,,,0.00,meteohub,2013-01-21 18:39:00,
2013-01-21 13:45:00,49.8,21.2,29.54,SW,225,13.0,20.0,32,0.00,,,0.00,meteohub,2013-01-21 18:45:00,
2013-01-21 13:52:00,50.0,19.8,29.54,NE,45,4.0,17.0,30,0.00,,,0.00,meteohub,2013-01-21 18:52:00,
2013-01-21 13:57:00,51.1,20.7,29.54,South,180,14.0,17.0,30,0.00,,,0.00,meteohub,2013-01-21 18:57:00,
2013-01-21 14:03:00,49.8,19.6,29.54,SW,225,11.0,16.0,30,0.00,,,0.00,meteohub,2013-01-21 19:03:00,
2013-01-21 14:09:00,50.2,19.9,29.54,South,180,8.0,16.0,30,0.00,,,0.00,meteohub,2013-01-21 19:09:00,
2013-01-21 14:15:00,49.6,18.7,29.54,SW,225,8.0,17.0,29,0.00,,,0.00,meteohub,2013-01-21 19:15:00,
2013-01-21 14:22:00,50.5,17.8,29.54,SW,225,4.0,17.0,27,0.00,,,0.00,meteohub,2013-01-21 19:22:00,
2013-01-21 14:28:00,49.8,17.2,29.54,SSW,203,11.0,23.0,27,0.00,,,0.00,meteohub,2013-01-21 19:28:00,
2013-01-21 14:34:00,49.8,18.0,29.55,South,180,17.0,23.0,28,0.00,,,0.00,meteohub,2013-01-21 19:34:00,
2013-01-21 14:40:00,49.3,16.7,29.55,NE,45,2.0,21.0,27,0.00,,,0.00,meteohub,2013-01-21 19:40:00,
2013-01-21 14:46:00,48.9,15.4,29.55,South,180,11.0,21.0,26,0.00,,,0.00,meteohub,2013-01-21 19:46:00,
2013-01-21 14:53:00,48.2,15.8,29.54,SSW,203,15.0,21.0,27,0.00,,,0.00,meteohub,2013-01-21 19:53:00,
2013-01-21 14:59:00,49.1,17.4,29.54,NW,315,8.0,17.0,28,0.00,,,0.00,meteohub,2013-01-21 19:59:00,
2013-01-21 15:05:00,49.6,16.2,29.54,South,180,21.0,21.0,26,0.00,,,0.00,meteohub,2013-01-21 20:05:00,
2013-01-21 15:12:00,48.4,15.1,29.54,South,180,9.0,21.0,26,0.00,,,0.00,meteohub,2013-01-21 20:12:00,
2013-01-21 15:18:00,47.5,15.1,29.54,SW,225,10.0,21.0,27,0.00,,,0.00,meteohub,2013-01-21 20:18:00,
2013-01-21 15:24:00,47.7,16.2,29.54,South,180,5.0,21.0,28,0.00,,,0.00,meteohub,2013-01-21 20:24:00,
2013-01-21 15:29:00,48.4,14.2,29.54,South,180,9.0,19.0,25,0.00,,,0.00,meteohub,2013-01-21 20:29:00,
2013-01-21 15:35:00,47.3,13.3,29.54,East,90,4.0,17.0,25,0.00,,,0.00,meteohub,2013-01-21 20:35:00,
2013-01-21 15:41:00,48.4,13.3,29.55,SW,225,8.0,17.0,24,0.00,,,0.00,meteohub,2013-01-21 20:41:00,
2013-01-21 15:47:00,49.1,13.8,29.55,SSW,203,15.0,17.0,24,0.00,,,0.00,meteohub,2013-01-21 20:47:00,
2013-01-21 15:53:00,48.9,11.7,29.54,NE,45,8.0,17.0,22,0.00,,,0.00,meteohub,2013-01-21 20:53:00,
2013-01-21 15:59:00,49.3,10.9,29.55,NNE,23,11.0,15.0,21,0.00,,,0.00,meteohub,2013-01-21 20:59:00,
2013-01-21 16:05:00,47.8,9.9,29.55,South,180,8.0,15.0,21,0.00,,,0.00,meteohub,2013-01-21 21:05:00,
2013-01-21 16:10:00,46.4,9.7,29.55,East,90,3.0,11.0,22,0.00,,,0.00,meteohub,2013-01-21 21:10:00,
2013-01-21 16:16:00,44.2,4.6,29.55,West,270,6.0,12.0,19,0.00,,,0.00,meteohub,2013-01-21 21:16:00,
2013-01-21 16:22:00,43.2,4.8,29.55,SSW,203,5.0,12.0,20,0.00,,,0.00,meteohub,2013-01-21 21:22:00,
2013-01-21 16:29:00,42.4,5.2,29.55,SE,135,7.0,12.0,21,0.00,,,0.00,meteohub,2013-01-21 21:29:00,
2013-01-21 16:35:00,42.1,5.9,29.55,NE,45,5.0,19.0,22,0.00,,,0.00,meteohub,2013-01-21 21:35:00,
2013-01-21 16:41:00,41.9,4.8,29.55,East,90,3.0,19.0,21,0.00,,,0.00,meteohub,2013-01-21 21:41:00,
2013-01-21 16:47:00,41.5,5.5,29.55,NW,315,3.0,12.0,22,0.00,,,0.00,meteohub,2013-01-21 21:47:00,
2013-01-21 16:52:00,41.0,4.1,29.56,North,0,9.0,12.0,21,0.00,,,0.00,meteohub,2013-01-21 21:52:00,
2013-01-21 16:58:00,40.5,3.6,29.55,SSW,203,6.0,14.0,21,0.00,,,0.00,meteohub,2013-01-21 21:58:00,
2013-01-21 17:05:00,39.9,3.2,29.55,East,90,3.0,18.0,21,0.00,,,0.00,meteohub,2013-01-21 22:05:00,
2013-01-21 17:11:00,39.2,2.5,29.56,East,90,4.0,18.0,21,0.00,,,0.00,meteohub,2013-01-21 22:11:00,
2013-01-21 17:17:00,38.5,3.9,29.56,NE,45,3.0,11.0,23,0.00,,,0.00,meteohub,2013-01-21 22:17:00,
2013-01-21 17:23:00,37.8,3.2,29.56,South,180,6.0,11.0,23,0.00,,,0.00,meteohub,2013-01-21 22:23:00,
2013-01-21 17:29:00,37.0,-0.4,29.56,South,180,4.0,11.0,20,0.00,,,0.00,meteohub,2013-01-21 22:29:00,
2013-01-21 17:35:00,36.5,0.3,29.56,West,270,11.0,11.0,21,0.00,,,0.00,meteohub,2013-01-21 22:35:00,
2013-01-21 17:42:00,36.1,0.0,29.56,WNW,293,4.0,11.0,21,0.00,,,0.00,meteohub,2013-01-21 22:42:00,
2013-01-21 17:47:00,36.0,-1.3,29.56,SW,225,4.0,11.0,20,0.00,,,0.00,meteohub,2013-01-21 22:47:00,
2013-01-21 17:52:00,36.0,-1.3,29.56,ENE,68,4.0,11.0,20,0.00,,,0.00,meteohub,2013-01-21 22:52:00,
2013-01-21 17:58:00,35.8,-0.4,29.56,East,90,11.0,11.0,21,0.00,,,0.00,meteohub,2013-01-21 22:58:00,
2013-01-21 18:05:00,35.6,-0.6,29.56,SE,135,15.0,15.0,21,0.00,,,0.00,meteohub,2013-01-21 23:05:00,
2013-01-21 18:11:00,35.4,0.3,29.56,North,0,3.0,15.0,22,0.00,,,0.00,meteohub,2013-01-21 23:11:00,
2013-01-21 18:17:00,35.2,0.1,29.56,East,90,10.0,15.0,22,0.00,,,0.00,meteohub,2013-01-21 23:17:00,
2013-01-21 18:22:00,35.1,1.0,29.56,SW,225,8.0,12.0,23,0.00,,,0.00,meteohub,2013-01-21 23:22:00,
2013-01-21 18:28:00,34.9,0.9,29.57,SW,225,7.0,14.0,23,0.00,,,0.00,meteohub,2013-01-21 23:28:00,
2013-01-21 18:34:00,34.9,0.9,29.56,SSE,158,4.0,14.0,23,0.00,,,0.00,meteohub,2013-01-21 23:34:00,
2013-01-21 18:41:00,34.5,0.5,29.56,North,0,6.0,16.0,23,0.00,,,0.00,meteohub,2013-01-21 23:41:00,
2013-01-21 18:47:00,34.3,1.2,29.56,South,180,4.0,16.0,24,0.00,,,0.00,meteohub,2013-01-21 23:47:00,
2013-01-21 18:53:00,34.2,1.9,29.57,South,180,6.0,16.0,25,0.00,,,0.00,meteohub,2013-01-21 23:53:00,
2013-01-21 18:59:00,33.8,1.8,29.57,South,180,5.0,13.0,25,0.00,,,0.00,meteohub,2013-01-21 23:59:00,
2013-01-21 19:05:00,33.6,2.3,29.57,South,180,8.0,12.0,26,0.00,,,0.00,meteohub,2013-01-22 00:05:00,
2013-01-21 19:12:00,33.3,2.1,29.57,SW,225,12.0,12.0,26,0.00,,,0.00,meteohub,2013-01-22 00:12:00,
2013-01-21 19:17:00,33.1,1.9,29.57,SSW,203,4.0,16.0,26,0.00,,,0.00,meteohub,2013-01-22 00:17:00,
2013-01-21 19:22:00,32.9,1.8,29.57,NW,315,5.0,16.0,26,0.00,,,0.00,meteohub,2013-01-22 00:22:00,
2013-01-21 19:28:00,32.9,1.8,29.57,SW,225,14.0,16.0,26,0.00,,,0.00,meteohub,2013-01-22 00:28:00,
2013-01-21 19:35:00,32.5,1.4,29.57,SW,225,5.0,14.0,26,0.00,,,0.00,meteohub,2013-01-22 00:35:00,
2013-01-21 19:41:00,32.4,2.1,29.57,NW,315,6.0,14.0,27,0.00,,,0.00,meteohub,2013-01-22 00:41:00,
2013-01-21 19:47:00,32.2,2.7,29.56,SW,225,16.0,16.0,28,0.00,,,0.00,meteohub,2013-01-22 00:47:00,
2013-01-21 19:53:00,32.0,3.4,29.56,SSW,203,11.0,16.0,29,0.00,,,0.00,meteohub,2013-01-22 00:53:00,
2013-01-21 19:59:00,32.0,4.1,29.56,SSW,203,10.0,16.0,30,0.00,,,0.00,meteohub,2013-01-22 00:59:00,
2013-01-21 20:05:00,31.8,4.6,29.56,West,270,3.0,16.0,31,0.00,,,0.00,meteohub,2013-01-22 01:05:00,
2013-01-21 20:12:00,31.6,5.2,29.56,North,0,6.0,16.0,32,0.00,,,0.00,meteohub,2013-01-22 01:12:00,
2013-01-21 20:17:00,31.5,5.0,29.56,West,270,2.0,16.0,32,0.00,,,0.00,meteohub,2013-01-22 01:17:00,
2013-01-21 20:22:00,31.5,5.0,29.56,West,270,2.0,11.0,32,0.00,,,0.00,meteohub,2013-01-22 01:22:00,
2013-01-21 20:28:00,30.7,5.7,29.56,NNW,338,6.0,8.0,34,0.00,,,0.00,meteohub,2013-01-22 01:28:00,
2013-01-21 20:35:00,30.6,6.1,29.56,NE,45,3.0,11.0,35,0.00,,,0.00,meteohub,2013-01-22 01:35:00,
2013-01-21 20:41:00,30.4,6.1,29.56,SW,225,2.0,12.0,35,0.00,,,0.00,meteohub,2013-01-22 01:41:00,
2013-01-21 20:47:00,30.2,6.4,29.56,SW,225,3.0,12.0,36,0.00,,,0.00,meteohub,2013-01-22 01:47:00,
2013-01-21 20:52:00,30.2,6.4,29.56,NW,315,8.0,8.0,36,0.00,,,0.00,meteohub,2013-01-22 01:52:00,
2013-01-21 20:58:00,30.6,6.1,29.56,North,0,2.0,8.0,35,0.00,,,0.00,meteohub,2013-01-22 01:58:00,
2013-01-21 21:04:00,30.7,6.3,29.56,NE,45,5.0,15.0,35,0.00,,,0.00,meteohub,2013-01-22 02:04:00,
2013-01-21 21:11:00,30.6,6.1,29.56,West,270,5.0,15.0,35,0.00,,,0.00,meteohub,2013-01-22 02:11:00,
2013-01-21 21:19:00,30.4,6.1,29.56,WNW,293,13.0,13.0,35,0.00,,,0.00,meteohub,2013-01-22 02:19:00,
2013-01-21 21:25:00,30.4,6.1,29.56,East,90,3.0,14.0,35,0.00,,,0.00,meteohub,2013-01-22 02:25:00,
2013-01-21 21:31:00,30.0,6.3,29.56,West,270,4.0,14.0,36,0.00,,,0.00,meteohub,2013-01-22 02:31:00,
2013-01-21 21:38:00,30.0,6.3,29.56,NE,45,9.0,14.0,36,0.00,,,0.00,meteohub,2013-01-22 02:38:00,
2013-01-21 21:44:00,29.8,5.5,29.56,East,90,8.0,15.0,35,0.00,,,0.00,meteohub,2013-01-22 02:44:00,
2013-01-21 21:50:00,29.7,5.4,29.56,NE,45,3.0,15.0,35,0.00,,,0.00,meteohub,2013-01-22 02:50:00,
2013-01-21 21:57:00,29.5,5.2,29.56,East,90,5.0,9.0,35,0.00,,,0.00,meteohub,2013-01-22 02:57:00,
2013-01-21 22:02:00,29.5,5.2,29.57,South,180,8.0,10.0,35,0.00,,,0.00,meteohub,2013-01-22 03:02:00,
2013-01-21 22:08:00,29.3,4.5,29.56,SSW,203,8.0,13.0,34,0.00,,,0.00,meteohub,2013-01-22 03:08:00,
2013-01-21 22:14:00,29.1,4.3,29.56,North,0,11.0,13.0,34,0.00,,,0.00,meteohub,2013-01-22 03:14:00,
2013-01-21 22:20:00,29.1,3.6,29.56,NE,45,3.0,13.0,33,0.00,,,0.00,meteohub,2013-01-22 03:20:00,
2013-01-21 22:26:00,29.1,3.6,29.56,South,180,13.0,14.0,33,0.00,,,0.00,meteohub,2013-01-22 03:26:00,
2013-01-21 22:32:00,28.9,3.4,29.56,WSW,248,5.0,23.0,33,0.00,,,0.00,meteohub,2013-01-22 03:32:00,
2013-01-21 22:37:00,28.8,3.2,29.56,South,180,2.0,23.0,33,0.00,,,0.00,meteohub,2013-01-22 03:37:00,
2013-01-21 22:43:00,28.4,3.0,29.56,SE,135,4.0,19.0,33,0.00,,,0.00,meteohub,2013-01-22 03:43:00,
2013-01-21 22:49:00,28.4,3.6,29.57,SSE,158,5.0,14.0,34,0.00,,,0.00,meteohub,2013-01-22 03:49:00,
2013-01-21 22:55:00,28.2,0.7,29.56,South,180,7.0,15.0,30,0.00,,,0.00,meteohub,2013-01-22 03:55:00,
2013-01-21 23:02:00,28.0,0.7,29.57,East,90,4.0,15.0,30,0.00,,,0.00,meteohub,2013-01-22 04:02:00,
2013-01-21 23:08:00,27.9,-0.2,29.57,West,270,9.0,10.0,29,0.00,,,0.00,meteohub,2013-01-22 04:08:00,
2013-01-21 23:14:00,27.7,-0.4,29.56,NE,45,3.0,9.0,29,0.00,,,0.00,meteohub,2013-01-22 04:14:00,
2013-01-21 23:20:00,27.5,-0.6,29.57,NW,315,15.0,15.0,29,0.00,,,0.00,meteohub,2013-01-22 04:20:00,
2013-01-21 23:26:00,27.5,-1.3,29.57,East,90,2.0,15.0,28,0.00,,,0.00,meteohub,2013-01-22 04:26:00,
2013-01-21 23:32:00,27.3,-1.5,29.57,South,180,12.0,17.0,28,0.00,,,0.00,meteohub,2013-01-22 04:32:00,
2013-01-21 23:37:00,27.0,-2.6,29.56,South,180,8.0,17.0,27,0.00,,,0.00,meteohub,2013-01-22 04:37:00,
2013-01-21 23:44:00,26.8,-2.7,29.56,SSW,203,11.0,17.0,27,0.00,,,0.00,meteohub,2013-01-22 04:44:00,
2013-01-21 23:50:00,26.6,-4.5,29.56,South,180,4.0,13.0,25,0.00,,,0.00,meteohub,2013-01-22 04:50:00,
2013-01-21 23:56:00,26.6,-4.5,29.56,North,0,6.0,17.0,25,0.00,,,0.00,meteohub,2013-01-22 04:56:00,